Time;durP1;ratioP1;P1;durP2;ratioP2;P2;SDS_P1;SDS_P2;PMS_P1;PMS_P2;Temp;Humidity;BMP_temperature;BMP_pressure;BME280_temperature;BME280_humidity;BME280_pressure;Samples;Min_cycle;Max_cycle;Signal;HPM_P1;HPM_P2
2022/05/20 00:01:28;;;;;;;6.03;5.63;;;23.60;99.90;;;;;;5071840;28;20451;-67
2022/05/20 00:03:54;;;;;;;8.50;6.17;;;23.40;99.90;;;;;;5071687;28;20483;-68
2022/05/20 00:06:21;;;;;;;8.77;7.10;;;23.40;99.90;;;;;;5071759;28;20812;-68
2022/05/20 00:08:48;;;;;;;6.97;6.27;;;23.40;99.90;;;;;;5071198;28;20930;-68
2022/05/20 00:11:15;;;;;;;7.30;6.80;;;23.40;99.90;;;;;;5055414;28;20450;-68
2022/05/20 00:13:43;;;;;;;6.07;5.57;;;23.40;99.90;;;;;;5071574;28;20459;-67
2022/05/20 00:16:10;;;;;;;6.27;5.70;;;23.50;99.90;;;;;;5071684;28;20443;-68
2022/05/20 00:18:38;;;;;;;8.93;8.03;;;23.50;99.90;;;;;;5071502;28;20761;-67
2022/05/20 00:21:05;;;;;;;11.00;8.87;;;23.50;99.90;;;;;;5052655;28;20452;-68
2022/05/20 00:23:32;;;;;;;10.50;9.40;;;23.30;99.90;;;;;;5051329;28;20834;-67
2022/05/20 00:25:59;;;;;;;10.77;9.43;;;23.10;99.90;;;;;;5051543;28;20448;-67
2022/05/20 00:28:28;;;;;;;10.03;9.13;;;23.20;99.90;;;;;;5051413;28;20455;-67
2022/05/20 00:30:57;;;;;;;10.90;9.77;;;23.10;99.90;;;;;;5068226;28;20443;-68
2022/05/20 00:33:26;;;;;;;9.27;8.37;;;23.10;99.90;;;;;;5071469;28;20986;-67
2022/05/20 00:35:55;;;;;;;11.67;10.50;;;23.10;99.90;;;;;;5071507;28;20450;-67
2022/05/20 00:38:22;;;;;;;11.63;10.53;;;23.10;99.90;;;;;;5071206;28;20462;-68
2022/05/20 00:40:52;;;;;;;10.20;9.23;;;23.10;99.90;;;;;;5070756;28;20451;-68
2022/05/20 00:43:29;;;;;;;9.17;8.27;;;23.10;99.90;;;;;;5071343;28;20474;-68
2022/05/20 00:45:58;;;;;;;8.53;7.90;;;23.20;99.90;;;;;;5071285;28;20485;-68
2022/05/20 00:48:27;;;;;;;10.67;9.47;;;23.30;99.90;;;;;;5071196;28;20958;-68
2022/05/20 00:50:59;;;;;;;12.30;11.20;;;23.30;99.90;;;;;;5054634;28;20444;-67
2022/05/20 00:53:29;;;;;;;8.80;7.97;;;23.20;99.90;;;;;;5051364;28;20470;-68
2022/05/20 00:55:57;;;;;;;9.20;8.40;;;23.30;99.90;;;;;;5051252;28;20445;-67
2022/05/20 00:58:26;;;;;;;10.03;9.13;;;23.30;99.90;;;;;;5051015;28;20458;-67
2022/05/20 01:00:55;;;;;;;10.57;9.67;;;23.30;99.90;;;;;;5054641;28;20443;-67
2022/05/20 01:03:24;;;;;;;9.87;7.77;;;23.30;99.90;;;;;;5055079;28;20464;-67
2022/05/20 01:05:53;;;;;;;9.73;8.83;;;23.30;99.90;;;;;;5055037;28;20484;-68
2022/05/20 01:08:24;;;;;;;10.60;9.60;;;23.40;99.90;;;;;;5054811;28;20448;-68
2022/05/20 01:10:51;;;;;;;10.67;9.67;;;23.40;99.90;;;;;;5055224;28;20448;-67
2022/05/20 01:13:19;;;;;;;9.93;8.97;;;23.50;99.90;;;;;;5054857;28;20871;-67
2022/05/20 01:15:47;;;;;;;10.60;9.03;;;23.40;99.90;;;;;;5054999;28;20788;-68
2022/05/20 01:18:15;;;;;;;9.10;7.00;;;23.40;99.90;;;;;;5054772;28;20444;-68
2022/05/20 01:20:47;;;;;;;10.87;8.87;;;23.50;99.90;;;;;;5054679;28;20445;-68
2022/05/20 01:23:17;;;;;;;12.33;10.97;;;23.50;99.90;;;;;;5054564;28;20468;-68
2022/05/20 01:25:47;;;;;;;11.40;10.20;;;23.40;99.60;;;;;;5054872;28;20486;-68
2022/05/20 01:28:14;;;;;;;11.07;9.97;;;23.20;99.80;;;;;;5061940;28;20451;-68
2022/05/20 01:30:46;;;;;;;11.67;10.50;;;23.20;99.90;;;;;;5074634;28;20447;-67
2022/05/20 01:33:20;;;;;;;12.23;11.10;;;23.20;99.90;;;;;;5074608;28;20470;-67
2022/05/20 01:35:47;;;;;;;9.93;9.03;;;23.10;99.90;;;;;;5074210;28;20438;-67
2022/05/20 01:38:15;;;;;;;9.67;8.97;;;23.00;99.90;;;;;;5074343;28;20468;-68
2022/05/20 01:40:47;;;;;;;9.07;8.20;;;23.10;99.90;;;;;;5074400;28;20447;-68
2022/05/20 01:43:22;;;;;;;10.70;9.20;;;23.10;99.90;;;;;;5074397;28;20446;-68
2022/05/20 01:45:54;;;;;;;10.53;9.43;;;23.10;99.80;;;;;;5073756;28;20478;-68
2022/05/20 01:48:26;;;;;;;7.73;7.03;;;23.10;99.80;;;;;;5074110;28;20447;-67
2022/05/20 01:50:55;;;;;;;7.70;7.00;;;23.20;99.70;;;;;;5074324;28;20443;-67
2022/05/20 01:53:31;;;;;;;7.53;6.83;;;23.20;99.40;;;;;;5074150;28;20467;-68
2022/05/20 01:56:05;;;;;;;8.93;8.13;;;23.30;99.30;;;;;;5073675;28;20930;-68
2022/05/20 01:58:38;;;;;;;8.20;7.40;;;23.30;99.20;;;;;;5073939;28;20808;-68
2022/05/20 02:01:11;;;;;;;7.57;7.07;;;23.30;99.10;;;;;;5074408;28;20956;-67
2022/05/20 02:03:43;;;;;;;10.17;9.27;;;23.30;99.20;;;;;;5074068;28;20475;-68
2022/05/20 02:06:15;;;;;;;10.33;9.40;;;23.40;99.00;;;;;;5073642;28;20478;-68
2022/05/20 02:08:48;;;;;;;9.83;8.83;;;23.40;98.90;;;;;;5073725;28;20450;-68
2022/05/20 02:11:21;;;;;;;10.50;9.60;;;23.40;98.80;;;;;;5072797;28;20454;-68
2022/05/20 02:13:54;;;;;;;9.93;8.97;;;23.40;98.70;;;;;;5073753;28;20470;-67
2022/05/20 02:16:25;;;;;;;11.70;10.30;;;23.40;98.60;;;;;;5069711;28;20467;-68
2022/05/20 02:18:57;;;;;;;11.17;10.17;;;23.40;98.50;;;;;;5053577;28;20822;-68
2022/05/20 02:21:31;;;;;;;10.20;8.17;;;23.40;98.50;;;;;;5053807;28;20452;-68
2022/05/20 02:24:03;;;;;;;11.03;10.00;;;23.40;98.60;;;;;;5053499;28;20479;-68
2022/05/20 02:26:34;;;;;;;9.83;8.70;;;23.30;98.70;;;;;;5053942;28;20484;-68
2022/05/20 02:29:03;;;;;;;11.50;8.80;;;23.30;98.90;;;;;;5053411;28;20476;-68
2022/05/20 02:31:35;;;;;;;10.50;9.23;;;23.30;99.00;;;;;;5053513;28;20444;-68
2022/05/20 02:34:02;;;;;;;9.10;8.23;;;23.30;99.10;;;;;;5053386;28;20880;-68
2022/05/20 02:36:32;;;;;;;10.03;9.13;;;23.30;99.20;;;;;;5053465;28;20447;-67
2022/05/20 02:39:01;;;;;;;10.10;8.87;;;23.30;99.50;;;;;;5053230;28;20555;-68
2022/05/20 02:41:28;;;;;;;9.13;8.23;;;23.30;99.20;;;;;;5053351;28;20466;-68
2022/05/20 02:43:55;;;;;;;8.20;7.53;;;23.30;99.30;;;;;;5053449;28;20456;-68
2022/05/20 02:46:22;;;;;;;9.23;8.33;;;23.30;99.40;;;;;;5070427;28;20475;-67
2022/05/20 02:48:49;;;;;;;10.03;9.13;;;23.30;99.50;;;;;;5072943;28;20447;-67
2022/05/20 02:51:17;;;;;;;10.67;9.57;;;23.30;99.50;;;;;;5073177;28;20447;-68
2022/05/20 02:53:44;;;;;;;8.70;7.87;;;23.30;99.60;;;;;;5073082;28;20463;-67
2022/05/20 02:56:12;;;;;;;10.30;8.80;;;23.30;99.60;;;;;;5072770;28;20459;-68
2022/05/20 03:04:13;;;;;;;9.30;8.50;;;23.20;99.90;;;;;;5072885;28;20616;-67
2022/05/20 03:06:41;;;;;;;8.53;7.70;;;23.20;99.90;;;;;;5053812;28;20846;-68
2022/05/20 03:09:10;;;;;;;8.20;7.30;;;23.20;99.90;;;;;;5052643;28;20463;-67
2022/05/20 03:11:39;;;;;;;10.03;9.03;;;23.20;99.90;;;;;;5052696;28;20441;-67
2022/05/20 03:14:09;;;;;;;10.00;8.97;;;23.10;99.90;;;;;;5052776;28;20533;-67
2022/05/20 03:16:36;;;;;;;11.97;10.87;;;23.10;99.90;;;;;;5070684;28;20497;-67
2022/05/20 03:19:04;;;;;;;9.57;8.70;;;23.10;99.90;;;;;;5072320;28;20522;-67
2022/05/20 03:21:31;;;;;;;10.20;9.30;;;23.10;99.90;;;;;;5072555;28;20439;-67
2022/05/20 03:23:59;;;;;;;11.07;10.07;;;23.10;99.90;;;;;;5071956;28;20482;-67
2022/05/20 03:26:26;;;;;;;9.50;8.57;;;23.10;99.90;;;;;;5070923;28;20483;-68
2022/05/20 03:28:54;;;;;;;11.77;10.50;;;23.10;99.90;;;;;;5072280;28;20447;-68
2022/05/20 03:31:21;;;;;;;9.70;8.77;;;23.10;99.90;;;;;;5072193;28;20443;-68
2022/05/20 03:33:48;;;;;;;10.70;8.00;;;23.10;99.90;;;;;;5072246;28;20459;-67
2022/05/20 03:36:15;;;;;;;7.80;7.07;;;23.10;99.90;;;;;;5071658;28;20842;-68
2022/05/20 03:38:42;;;;;;;7.30;6.63;;;23.20;99.90;;;;;;5071916;28;20439;-67
2022/05/20 03:41:10;;;;;;;6.90;6.40;;;23.20;99.90;;;;;;5072259;28;20450;-67
2022/05/20 03:43:37;;;;;;;6.23;5.57;;;23.30;99.90;;;;;;5061741;28;20563;-68
2022/05/20 03:46:05;;;;;;;7.07;6.43;;;23.30;99.90;;;;;;5052054;28;20488;-67
2022/05/20 03:48:33;;;;;;;10.43;6.47;;;23.30;99.90;;;;;;5051852;28;20936;-68
2022/05/20 03:51:08;;;;;;;7.60;6.80;;;23.30;99.90;;;;;;5052066;28;20431;-67
2022/05/20 03:53:35;;;;;;;5.80;5.40;;;23.30;99.90;;;;;;5061398;28;20459;-68
2022/05/20 03:56:02;;;;;;;6.20;5.73;;;23.30;99.90;;;;;;5071752;28;20435;-68
2022/05/20 03:58:28;;;;;;;7.90;6.60;;;23.40;99.80;;;;;;5071729;28;20435;-67
2022/05/20 04:03:43;;;;;;;6.73;6.13;;;23.40;99.90;;;;;;5070170;28;20463;-68
2022/05/20 04:06:10;;;;;;;13.43;8.60;;;23.50;99.90;;;;;;5071817;28;20475;-68
2022/05/20 04:08:38;;;;;;;11.70;9.73;;;23.50;99.90;;;;;;5071485;28;20822;-68
2022/05/20 04:11:06;;;;;;;13.20;11.90;;;23.40;99.90;;;;;;5067838;28;20463;-67
2022/05/20 04:13:34;;;;;;;14.13;10.50;;;23.40;99.90;;;;;;5051781;28;20642;-67
2022/05/20 04:16:01;;;;;;;11.80;9.87;;;23.40;99.90;;;;;;5051685;28;20466;-66
2022/05/20 04:18:29;;;;;;;12.10;8.40;;;23.40;99.90;;;;;;5051374;28;20451;-66
2022/05/20 04:20:57;;;;;;;7.70;7.07;;;23.50;99.90;;;;;;5051494;28;20448;-66
2022/05/20 04:23:25;;;;;;;7.53;6.60;;;23.50;99.90;;;;;;5050219;28;20847;-66
2022/05/20 04:25:51;;;;;;;7.77;6.70;;;23.50;99.90;;;;;;5051584;28;20476;-66
2022/05/20 04:28:18;;;;;;;6.60;6.00;;;23.50;99.90;;;;;;5051401;28;20444;-66
2022/05/20 04:30:46;;;;;;;6.67;6.10;;;23.50;99.90;;;;;;5051393;28;20452;-66
2022/05/20 04:33:13;;;;;;;9.37;6.27;;;23.60;99.90;;;;;;5051352;28;20447;-66
2022/05/20 04:35:40;;;;;;;8.73;5.73;;;23.50;99.90;;;;;;5050715;28;20859;-66
2022/05/20 04:38:08;;;;;;;5.77;5.27;;;23.60;99.90;;;;;;5051177;28;20451;-66
2022/05/20 04:40:35;;;;;;;5.37;4.87;;;23.50;99.90;;;;;;5051521;28;20440;-66
2022/05/20 04:48:32;;;;;;;4.00;3.70;;;23.60;99.90;;;;;;5051328;28;21042;-66
2022/05/20 04:50:59;;;;;;;5.10;4.67;;;23.60;99.90;;;;;;5051212;28;20447;-66
2022/05/20 04:56:14;;;;;;;4.60;4.20;;;23.60;99.90;;;;;;5033642;28;20423;-66
2022/05/20 04:58:41;;;;;;;5.80;5.30;;;23.60;99.90;;;;;;5050913;28;20447;-66
2022/05/20 05:01:08;;;;;;;4.43;4.03;;;23.60;99.90;;;;;;5051141;28;20440;-66
2022/05/20 05:03:34;;;;;;;8.40;4.67;;;23.60;99.90;;;;;;5051129;28;20518;-66
2022/05/20 05:06:01;;;;;;;3.83;3.53;;;23.60;99.90;;;;;;5051067;28;20479;-66
2022/05/20 05:08:29;;;;;;;5.17;4.67;;;23.60;99.90;;;;;;5050878;28;20440;-66
2022/05/20 05:10:56;;;;;;;4.63;4.17;;;23.60;99.90;;;;;;5051112;28;20445;-66
2022/05/20 05:13:23;;;;;;;5.20;4.10;;;23.70;99.90;;;;;;5050944;28;20463;-66
2022/05/20 05:15:49;;;;;;;3.93;3.50;;;23.70;99.90;;;;;;5050936;28;20980;-67
2022/05/20 05:18:22;;;;;;;5.07;4.57;;;23.70;99.90;;;;;;5050870;28;20463;-66
2022/05/20 05:20:51;;;;;;;3.57;3.40;;;23.70;99.90;;;;;;5050973;28;20631;-67
2022/05/20 05:23:19;;;;;;;4.00;3.70;;;23.70;99.90;;;;;;5050797;28;20499;-67
2022/05/20 05:25:48;;;;;;;4.17;3.80;;;23.70;99.80;;;;;;5050911;28;20484;-67
2022/05/20 05:28:15;;;;;;;4.20;3.90;;;23.70;99.70;;;;;;5050679;28;20957;-68
2022/05/20 05:30:44;;;;;;;4.07;3.87;;;23.70;99.70;;;;;;5050861;28;20443;-68
2022/05/20 05:33:11;;;;;;;4.20;3.90;;;23.70;99.70;;;;;;5051006;28;20927;-67
2022/05/20 05:35:38;;;;;;;4.63;4.33;;;23.70;99.70;;;;;;5050789;28;20436;-67
2022/05/20 05:38:05;;;;;;;3.70;3.50;;;23.70;99.40;;;;;;5050592;28;20455;-67
2022/05/20 05:40:33;;;;;;;3.90;3.70;;;23.70;99.50;;;;;;5050843;28;20460;-67
2022/05/20 05:43:02;;;;;;;4.03;3.73;;;23.80;99.20;;;;;;5050716;28;20870;-67
2022/05/20 05:45:31;;;;;;;3.37;3.10;;;23.70;99.30;;;;;;5051230;28;20502;-67
2022/05/20 05:47:59;;;;;;;3.33;3.20;;;23.70;99.00;;;;;;5054226;28;20861;-68
2022/05/20 05:50:27;;;;;;;3.70;3.50;;;23.80;99.20;;;;;;5054293;28;20447;-67
2022/05/20 05:52:57;;;;;;;4.13;3.83;;;23.80;99.10;;;;;;5054301;28;20455;-67
2022/05/20 05:55:25;;;;;;;4.87;4.53;;;23.80;99.00;;;;;;5054271;28;20440;-67
2022/05/20 05:57:52;;;;;;;4.23;3.93;;;23.80;99.00;;;;;;5053860;28;20826;-67
2022/05/20 06:00:22;;;;;;;3.83;3.63;;;23.80;98.90;;;;;;5054081;28;20450;-67
2022/05/20 06:02:49;;;;;;;5.57;4.50;;;23.80;99.00;;;;;;5054135;28;20444;-67
2022/05/20 06:05:16;;;;;;;3.83;3.63;;;23.80;99.00;;;;;;5053889;28;20499;-67
2022/05/20 06:07:43;;;;;;;4.17;3.90;;;23.80;98.90;;;;;;5053766;28;20452;-68
2022/05/20 06:10:10;;;;;;;3.53;3.37;;;23.80;98.70;;;;;;5053982;28;20448;-69
2022/05/20 06:12:37;;;;;;;4.00;3.80;;;23.80;98.60;;;;;;5053834;28;20451;-67
2022/05/20 06:15:06;;;;;;;4.47;4.17;;;23.80;98.90;;;;;;5053675;28;20468;-67
2022/05/20 06:17:34;;;;;;;4.60;4.20;;;23.80;98.50;;;;;;5053692;28;20814;-67
2022/05/20 06:20:01;;;;;;;4.97;4.57;;;23.80;98.50;;;;;;5053704;28;20455;-67
2022/05/20 06:22:28;;;;;;;5.60;5.20;;;23.80;99.00;;;;;;5053722;28;20451;-67
2022/05/20 06:24:55;;;;;;;5.20;4.70;;;23.80;98.90;;;;;;5053505;28;20499;-67
2022/05/20 06:27:22;;;;;;;4.67;4.37;;;23.80;98.90;;;;;;5053345;28;20498;-67
2022/05/20 06:29:49;;;;;;;5.40;4.90;;;23.80;99.00;;;;;;5053447;28;20471;-67
2022/05/20 06:32:16;;;;;;;4.47;4.20;;;23.80;98.90;;;;;;5053624;28;20448;-67
2022/05/20 06:40:16;;;;;;;5.60;4.97;;;23.80;99.00;;;;;;5053503;28;20419;-67
2022/05/20 06:42:43;;;;;;;6.17;4.90;;;23.80;98.90;;;;;;5053250;28;20947;-67
2022/05/20 06:45:12;;;;;;;6.23;5.73;;;23.80;99.00;;;;;;5053359;28;20797;-66
2022/05/20 06:47:39;;;;;;;4.80;4.30;;;23.80;99.00;;;;;;5052977;28;20483;-66
2022/05/20 06:50:09;;;;;;;5.33;4.93;;;23.80;98.70;;;;;;5053170;28;20818;-66
2022/05/20 06:52:36;;;;;;;5.67;5.17;;;23.80;98.60;;;;;;5053228;28;20443;-66
2022/05/20 06:55:03;;;;;;;5.97;5.57;;;23.80;99.10;;;;;;5053115;28;20803;-66
2022/05/20 06:57:29;;;;;;;5.47;5.07;;;23.90;99.00;;;;;;5052018;28;20447;-66
2022/05/20 06:59:56;;;;;;;5.83;5.33;;;23.80;99.60;;;;;;5053001;28;20444;-66
2022/05/20 07:02:23;;;;;;;6.47;5.87;;;23.90;98.90;;;;;;5052998;28;20452;-66
2022/05/20 07:04:50;;;;;;;5.47;5.07;;;23.90;98.70;;;;;;5052990;28;20472;-66
2022/05/20 07:07:18;;;;;;;5.63;5.20;;;23.90;99.00;;;;;;5052674;28;20476;-67
2022/05/20 07:09:44;;;;;;;4.70;4.40;;;23.90;99.40;;;;;;5052886;28;20440;-68
2022/05/20 07:12:12;;;;;;;6.30;5.80;;;23.90;99.40;;;;;;5052727;28;20440;-67
2022/05/20 07:14:38;;;;;;;5.90;5.27;;;23.90;99.30;;;;;;5052687;28;20827;-67
2022/05/20 07:17:05;;;;;;;5.60;5.20;;;23.90;98.80;;;;;;5052511;28;20476;-66
2022/05/20 07:19:33;;;;;;;5.40;5.00;;;23.90;99.00;;;;;;5052656;28;20502;-67
2022/05/20 07:22:00;;;;;;;5.47;5.07;;;23.90;98.70;;;;;;5052544;28;20483;-67
2022/05/20 07:24:28;;;;;;;6.90;6.30;;;23.90;99.10;;;;;;5052232;28;20476;-66
2022/05/20 07:26:55;;;;;;;6.47;5.40;;;23.90;98.90;;;;;;5052245;28;20484;-67
2022/05/20 07:29:21;;;;;;;6.00;5.40;;;23.90;99.30;;;;;;5052277;28;20447;-67
2022/05/20 07:31:48;;;;;;;5.77;5.23;;;23.90;99.40;;;;;;5052612;28;20440;-67
2022/05/20 07:34:15;;;;;;;6.10;5.60;;;23.90;99.20;;;;;;5052352;28;20491;-67
2022/05/20 07:36:42;;;;;;;5.77;5.27;;;23.90;99.60;;;;;;5052318;28;20444;-67
2022/05/20 07:39:09;;;;;;;6.60;6.00;;;23.90;99.00;;;;;;5052172;28;20447;-67
2022/05/20 07:41:37;;;;;;;6.60;6.10;;;24.00;99.40;;;;;;5052155;28;20444;-67
2022/05/20 07:44:04;;;;;;;5.47;4.97;;;23.90;99.70;;;;;;5052180;28;20472;-67
2022/05/20 07:46:31;;;;;;;6.50;6.03;;;24.00;99.60;;;;;;5052107;28;20502;-67
2022/05/20 07:48:58;;;;;;;6.90;6.27;;;23.90;99.70;;;;;;5051886;28;20453;-67
2022/05/20 07:51:26;;;;;;;6.83;6.30;;;23.90;99.60;;;;;;5052138;28;20455;-68
2022/05/20 07:53:56;;;;;;;5.60;5.20;;;24.00;99.80;;;;;;5051960;28;20471;-67
2022/05/20 07:56:26;;;;;;;7.83;7.13;;;24.00;99.70;;;;;;5051832;28;20513;-67
2022/05/20 07:58:58;;;;;;;6.80;6.30;;;24.00;99.90;;;;;;5051726;28;20440;-67
2022/05/20 08:01:27;;;;;;;7.27;6.77;;;24.00;99.90;;;;;;5051676;28;21019;-66
2022/05/20 08:06:41;;;;;;;6.97;6.40;;;24.00;99.90;;;;;;5051794;28;20840;-68
2022/05/20 08:09:09;;;;;;;6.70;6.20;;;24.00;99.90;;;;;;5051583;28;20440;-67
2022/05/20 08:11:36;;;;;;;7.60;7.00;;;24.00;99.90;;;;;;5051706;28;20804;-67
2022/05/20 08:14:04;;;;;;;7.07;6.43;;;24.00;99.90;;;;;;5051552;28;20471;-67
2022/05/20 08:16:31;;;;;;;6.43;5.93;;;24.00;99.90;;;;;;5051637;28;20530;-67
2022/05/20 08:18:58;;;;;;;7.30;6.80;;;24.10;99.90;;;;;;5051501;28;20449;-67
2022/05/20 08:21:24;;;;;;;7.17;6.43;;;24.00;99.90;;;;;;5051678;28;20972;-67
2022/05/20 08:23:51;;;;;;;7.50;6.90;;;24.00;99.90;;;;;;5051534;28;20476;-67
2022/05/20 08:26:18;;;;;;;7.77;6.50;;;24.10;99.90;;;;;;5051515;28;20476;-68
2022/05/20 08:28:46;;;;;;;7.50;6.90;;;24.10;99.90;;;;;;5051330;28;20931;-67
2022/05/20 08:31:14;;;;;;;7.73;7.00;;;24.10;99.90;;;;;;5051491;28;20455;-70
2022/05/20 08:33:41;;;;;;;7.03;6.43;;;24.10;99.90;;;;;;5051640;28;20543;-67
2022/05/20 08:36:09;;;;;;;7.00;6.40;;;24.10;99.90;;;;;;5051347;28;20815;-67
2022/05/20 08:38:36;;;;;;;6.73;6.23;;;24.10;99.90;;;;;;5051235;28;20820;-67
2022/05/20 08:41:03;;;;;;;8.50;7.77;;;24.10;99.90;;;;;;5051247;28;20934;-67
2022/05/20 08:43:33;;;;;;;8.43;7.60;;;24.10;99.90;;;;;;5051286;28;20584;-67
2022/05/20 08:46:00;;;;;;;7.10;6.60;;;24.10;99.90;;;;;;5051558;28;20812;-67
2022/05/20 08:48:29;;;;;;;7.43;6.80;;;24.10;99.90;;;;;;5051078;28;20444;-67
2022/05/20 08:50:58;;;;;;;8.10;7.30;;;24.10;99.90;;;;;;5051224;28;20452;-66
2022/05/20 08:53:28;;;;;;;8.83;8.03;;;24.10;99.90;;;;;;5051087;28;20452;-66
2022/05/20 08:55:58;;;;;;;7.80;7.10;;;24.10;99.90;;;;;;5051313;28;20804;-66
2022/05/20 08:58:26;;;;;;;7.53;6.93;;;24.10;99.90;;;;;;5051032;28;20436;-66
2022/05/20 09:00:55;;;;;;;6.90;6.40;;;24.20;99.90;;;;;;5051380;28;20444;-66
2022/05/20 09:03:22;;;;;;;6.97;6.47;;;24.20;99.90;;;;;;5051080;28;20835;-66
2022/05/20 09:06:03;;;;;;;7.13;6.50;;;24.10;99.90;;;;;;5051162;28;20436;-66
2022/05/20 09:08:30;;;;;;;8.20;7.50;;;24.20;99.90;;;;;;5050945;28;21000;-66
2022/05/20 09:10:58;;;;;;;7.30;6.17;;;24.20;99.90;;;;;;5051176;28;20440;-66
2022/05/20 09:16:08;;;;;;;6.83;6.33;;;24.20;99.90;;;;;;5051572;28;20527;-66
2022/05/20 09:18:39;;;;;;;6.93;6.40;;;24.20;99.90;;;;;;5050900;28;20919;-66
2022/05/20 09:21:09;;;;;;;8.23;7.53;;;24.20;99.90;;;;;;5052814;28;20447;-66
2022/05/20 09:23:50;;;;;;;6.67;6.10;;;24.20;99.90;;;;;;5054642;28;20511;-66
2022/05/20 09:26:23;;;;;;;6.17;5.77;;;24.20;99.90;;;;;;5054804;28;20451;-66
2022/05/20 09:28:54;;;;;;;7.07;6.57;;;24.20;99.90;;;;;;5054621;28;20612;-67
2022/05/20 09:31:25;;;;;;;6.97;6.47;;;24.20;99.90;;;;;;5054721;28;20467;-66
2022/05/20 09:33:56;;;;;;;7.23;6.63;;;24.30;99.90;;;;;;5054634;28;20471;-66
2022/05/20 09:36:43;;;;;;;7.90;7.30;;;24.30;99.90;;;;;;5054615;28;20452;-66
2022/05/20 09:39:16;;;;;;;6.70;6.20;;;24.20;99.90;;;;;;5054529;28;20475;-66
2022/05/20 09:42:04;;;;;;;6.80;6.30;;;24.30;99.90;;;;;;5054548;28;20436;-66
2022/05/20 09:44:37;;;;;;;6.60;6.20;;;24.20;99.90;;;;;;5054490;28;20529;-66
2022/05/20 09:47:12;;;;;;;6.40;6.00;;;24.30;99.90;;;;;;5054222;28;20480;-66
2022/05/20 09:49:43;;;;;;;7.80;7.13;;;24.30;99.90;;;;;;5054224;28;20444;-66
2022/05/20 09:52:23;;;;;;;6.70;6.20;;;24.30;99.90;;;;;;5054475;28;20447;-66
2022/05/20 09:54:57;;;;;;;8.03;7.43;;;24.30;99.90;;;;;;5054222;28;20467;-66
2022/05/20 09:57:30;;;;;;;6.53;6.07;;;24.30;99.90;;;;;;5054105;28;20439;-66
2022/05/20 10:00:01;;;;;;;6.90;6.40;;;24.30;99.90;;;;;;5054122;28;20812;-66
2022/05/20 10:02:32;;;;;;;6.60;6.20;;;24.30;99.90;;;;;;5054162;28;20809;-66
2022/05/20 10:05:09;;;;;;;6.43;5.93;;;24.30;99.90;;;;;;5054006;28;20467;-66
2022/05/20 10:07:48;;;;;;;6.73;6.23;;;24.40;99.90;;;;;;5053733;28;20490;-67
2022/05/20 10:10:23;;;;;;;7.00;6.43;;;24.30;99.90;;;;;;5053985;28;20446;-66
2022/05/20 10:12:52;;;;;;;6.30;5.90;;;24.30;99.90;;;;;;5054093;28;20451;-67
2022/05/20 10:15:25;;;;;;;6.90;6.40;;;24.30;99.90;;;;;;5053989;28;20989;-66
2022/05/20 10:18:05;;;;;;;6.53;6.13;;;24.30;99.90;;;;;;5054000;28;20627;-67
2022/05/20 10:20:37;;;;;;;5.77;5.37;;;24.40;99.90;;;;;;5053802;28;20454;-66
2022/05/20 10:23:12;;;;;;;6.70;6.20;;;24.40;99.90;;;;;;5053445;28;20815;-66
2022/05/20 10:25:46;;;;;;;6.17;5.77;;;24.40;99.90;;;;;;5086085;22;20592;-63
2022/05/20 10:34:03;;;;;;;6.43;5.67;;;24.40;99.90;;;;;;5067916;28;20954;-63
2022/05/20 10:36:39;;;;;;;6.80;6.37;;;24.40;99.90;;;;;;5053497;28;20447;-63
2022/05/20 10:39:16;;;;;;;6.93;6.43;;;24.40;99.90;;;;;;5053392;28;20451;-63
2022/05/20 10:41:53;;;;;;;6.47;6.00;;;24.40;99.90;;;;;;5053373;28;20822;-63
2022/05/20 10:50:24;;;;;;;6.20;5.80;;;24.40;99.90;;;;;;5053390;28;20423;-63
2022/05/20 10:53:01;;;;;;;6.77;6.27;;;24.50;99.90;;;;;;5053269;28;20507;-63
2022/05/20 10:55:39;;;;;;;6.27;5.87;;;24.50;99.90;;;;;;5053075;28;20464;-63
2022/05/20 10:58:31;;;;;;;5.10;4.70;;;24.50;99.90;;;;;;5052903;28;20442;-63
2022/05/20 11:01:02;;;;;;;6.40;6.00;;;24.50;99.90;;;;;;5053036;28;20527;-63
2022/05/20 11:04:11;;;;;;;6.30;5.70;;;24.50;99.90;;;;;;5052959;28;20452;-63
2022/05/20 11:06:53;;;;;;;6.10;5.70;;;24.50;99.90;;;;;;5052456;28;20444;-63
2022/05/20 11:09:30;;;;;;;6.67;6.07;;;24.50;99.90;;;;;;5052911;28;20444;-63
2022/05/20 11:12:00;;;;;;;6.03;5.60;;;24.50;99.90;;;;;;5052922;28;20463;-63
2022/05/20 11:15:03;;;;;;;5.60;5.30;;;24.50;99.90;;;;;;5052819;28;20464;-63
2022/05/20 11:17:48;;;;;;;5.83;5.43;;;24.60;99.90;;;;;;5052585;28;20447;-63
2022/05/20 11:20:39;;;;;;;5.73;5.43;;;24.60;99.90;;;;;;5052718;28;20444;-63
2022/05/20 11:23:37;;;;;;;6.00;5.60;;;24.60;99.90;;;;;;5052731;28;20444;-62
2022/05/20 11:26:21;;;;;;;5.73;5.43;;;24.60;99.90;;;;;;5052516;28;20451;-63
2022/05/20 11:29:13;;;;;;;6.23;5.83;;;24.60;99.90;;;;;;5052309;28;20491;-63
2022/05/20 11:31:48;;;;;;;6.10;5.70;;;24.60;99.90;;;;;;5052484;28;20961;-60
2022/05/20 11:34:38;;;;;;;6.10;5.70;;;24.60;99.90;;;;;;5052519;28;20522;-59
2022/05/20 11:37:24;;;;;;;5.60;5.30;;;24.60;99.90;;;;;;5052115;28;20506;-61
2022/05/20 11:40:21;;;;;;;5.13;4.83;;;24.60;99.90;;;;;;5052180;28;21011;-61
2022/05/20 11:43:06;;;;;;;5.97;5.57;;;24.60;99.90;;;;;;5050001;28;20452;-63
2022/05/20 11:45:47;;;;;;;6.27;5.87;;;24.60;99.90;;;;;;5052215;28;20471;-62
2022/05/20 11:48:39;;;;;;;5.60;5.20;;;24.60;99.90;;;;;;5051979;28;20475;-62
2022/05/20 11:51:40;;;;;;;6.67;6.17;;;24.60;99.90;;;;;;5039310;28;20449;-63
2022/05/20 11:54:11;;;;;;;5.50;5.00;;;24.60;99.90;;;;;;5051921;28;20503;-62
2022/05/20 11:56:43;;;;;;;5.60;5.30;;;24.70;99.90;;;;;;5052154;28;20444;-63
2022/05/20 11:59:16;;;;;;;6.33;5.93;;;24.70;99.90;;;;;;5051796;28;20491;-62
2022/05/20 12:01:47;;;;;;;5.97;5.57;;;24.70;99.90;;;;;;5051854;28;20448;-62
2022/05/20 12:04:16;;;;;;;5.63;5.30;;;24.70;99.90;;;;;;5052006;28;20839;-62
2022/05/20 12:06:47;;;;;;;5.53;5.23;;;24.70;99.90;;;;;;5051770;28;20448;-63
2022/05/20 12:09:31;;;;;;;5.83;5.50;;;24.70;99.90;;;;;;5051658;28;20488;-63
2022/05/20 12:12:17;;;;;;;5.07;4.77;;;24.70;99.90;;;;;;5051822;28;20455;-63
2022/05/20 12:15:02;;;;;;;5.57;5.27;;;24.70;99.90;;;;;;5051692;28;20819;-63
2022/05/20 12:17:32;;;;;;;5.53;5.13;;;24.70;99.90;;;;;;5051479;28;20444;-63
2022/05/20 12:25:42;;;;;;;4.47;4.27;;;24.70;99.90;;;;;;5051576;28;20463;-63
2022/05/20 12:28:11;;;;;;;4.53;4.33;;;24.70;99.90;;;;;;5051339;28;20479;-63
2022/05/20 12:30:41;;;;;;;5.27;4.97;;;24.80;99.90;;;;;;5051717;28;20895;-63
2022/05/20 12:33:27;;;;;;;5.53;5.23;;;24.80;99.90;;;;;;5051514;28;20448;-63
2022/05/20 12:36:20;;;;;;;4.47;4.27;;;24.80;99.90;;;;;;5051438;28;20447;-62
2022/05/20 12:38:48;;;;;;;5.10;4.70;;;24.80;99.90;;;;;;5045006;28;20449;-63
2022/05/20 12:41:21;;;;;;;4.27;4.07;;;24.80;99.90;;;;;;5051569;28;20459;-63
2022/05/20 12:43:56;;;;;;;4.60;4.30;;;24.80;99.90;;;;;;5051266;28;20460;-63
2022/05/20 12:47:02;;;;;;;4.80;4.50;;;24.80;99.90;;;;;;5051369;28;20443;-63
2022/05/20 12:49:34;;;;;;;5.07;4.77;;;24.80;99.90;;;;;;5051164;28;20479;-63
2022/05/20 12:52:14;;;;;;;4.97;4.57;;;24.80;99.90;;;;;;5051206;28;20440;-62
2022/05/20 12:54:44;;;;;;;5.43;5.03;;;24.80;99.90;;;;;;5051195;28;20468;-63
2022/05/20 12:57:14;;;;;;;4.40;4.20;;;24.80;99.90;;;;;;5054693;28;20451;-63
2022/05/20 12:59:41;;;;;;;3.90;3.70;;;24.80;99.90;;;;;;5055299;28;20831;-63
2022/05/20 13:02:13;;;;;;;4.47;4.27;;;24.90;99.90;;;;;;5054066;28;20440;-62
2022/05/20 13:04:46;;;;;;;4.43;4.23;;;24.80;99.90;;;;;;5055279;28;20464;-62
2022/05/20 13:07:17;;;;;;;5.97;4.67;;;24.80;99.90;;;;;;5055324;28;20448;-61
2022/05/20 13:09:45;;;;;;;6.27;5.67;;;24.90;99.90;;;;;;5055297;28;20523;-59
2022/05/20 13:12:18;;;;;;;6.77;5.70;;;24.90;99.90;;;;;;5054843;28;20809;-58
2022/05/20 13:14:47;;;;;;;7.30;6.13;;;24.90;99.90;;;;;;5055077;28;20468;-59
2022/05/20 13:17:13;;;;;;;7.97;7.30;;;24.90;99.90;;;;;;5054848;28;20444;-65
2022/05/20 13:19:46;;;;;;;7.30;6.60;;;24.80;99.90;;;;;;5054855;28;20462;-55
2022/05/20 13:22:15;;;;;;;7.20;6.80;;;24.90;99.90;;;;;;5054605;28;20460;-54
2022/05/20 13:24:42;;;;;;;12.30;7.27;;;24.70;99.90;;;;;;5054660;28;20479;-61
2022/05/20 13:27:14;;;;;;;6.63;5.93;;;24.70;99.90;;;;;;5054603;28;20459;-61
2022/05/20 13:29:44;;;;;;;6.57;5.20;;;24.70;99.90;;;;;;5054644;28;20487;-60
2022/05/20 13:32:17;;;;;;;3.47;3.17;;;24.60;99.90;;;;;;5054430;28;20452;-57
2022/05/20 13:34:47;;;;;;;3.20;3.00;;;24.50;99.90;;;;;;5054440;28;20471;-61
2022/05/20 13:37:18;;;;;;;2.47;2.27;;;24.50;99.90;;;;;;5054621;28;20451;-64
2022/05/20 13:39:45;;;;;;;2.00;1.90;;;24.50;99.90;;;;;;5053941;28;20439;-59
2022/05/20 13:42:15;;;;;;;1.53;1.43;;;24.60;99.90;;;;;;5054622;28;20444;-63
2022/05/20 13:44:44;;;;;;;2.40;2.20;;;24.60;99.90;;;;;;5054656;28;20472;-66
2022/05/20 13:50:04;;;;;;;1.77;1.57;;;24.60;99.90;;;;;;5040019;28;20859;-63
2022/05/20 13:52:31;;;;;;;1.13;1.13;;;24.60;99.90;;;;;;5057374;28;20466;-67